createdAt,value
2022-12-22T00:00:39.379Z,0.00
2022-12-22T00:01:44.939Z,0.00
2022-12-22T00:02:41.316Z,0.00
2022-12-22T00:03:40.518Z,0.00
2022-12-22T00:04:40.646Z,0.00
2022-12-22T00:05:40.825Z,0.00
2022-12-22T00:06:41.524Z,0.00
2022-12-22T00:07:41.701Z,0.00
2022-12-22T00:08:41.926Z,0.00
2022-12-22T00:09:42.095Z,0.00
2022-12-22T00:10:40.855Z,0.00
2022-12-22T00:11:42.187Z,0.00
2022-12-22T00:12:43.371Z,0.00
2022-12-22T00:13:41.770Z,0.00
2022-12-22T00:14:42.090Z,0.00
2022-12-22T00:15:44.399Z,0.00
2022-12-22T00:16:42.743Z,0.00
2022-12-22T00:17:44.859Z,0.00
2022-12-22T00:18:43.262Z,0.00
2022-12-22T00:19:43.576Z,0.00
2022-12-22T00:20:45.762Z,0.00
2022-12-22T00:21:44.237Z,0.00
2022-12-22T00:22:44.581Z,0.00
2022-12-22T00:23:44.885Z,0.00
2022-12-22T00:24:47.059Z,0.00
2022-12-22T00:25:47.259Z,0.00
2022-12-22T00:26:45.822Z,0.00
2022-12-22T00:27:48.139Z,0.00
2022-12-22T00:28:46.300Z,0.00
2022-12-22T00:29:49.946Z,0.00
2022-12-22T00:30:46.917Z,0.00
2022-12-22T00:31:48.128Z,0.00
2022-12-22T00:32:49.325Z,0.00
2022-12-22T00:33:49.498Z,0.00
2022-12-22T00:34:47.927Z,0.00
2022-12-22T00:35:48.240Z,0.00
2022-12-22T00:36:48.552Z,0.00
2022-12-22T00:37:50.761Z,0.00
2022-12-22T00:38:51.887Z,0.00
2022-12-22T00:39:49.462Z,0.00
2022-12-22T00:40:49.650Z,0.00
2022-12-22T00:41:51.836Z,0.00
2022-12-22T00:42:50.222Z,0.00
2022-12-22T00:43:51.488Z,0.00
2022-12-22T00:44:52.740Z,0.00
2022-12-22T00:45:51.165Z,0.00
2022-12-22T00:46:51.449Z,0.00
2022-12-22T00:47:53.627Z,0.00
2022-12-22T00:48:52.028Z,0.00
2022-12-22T00:49:52.336Z,0.00
2022-12-22T00:50:52.651Z,0.00
2022-12-22T00:51:53.944Z,0.00
2022-12-22T00:52:55.158Z,0.00
2022-12-22T00:53:54.497Z,0.00
2022-12-22T00:54:55.739Z,0.00
2022-12-22T00:55:54.135Z,0.00
2022-12-22T00:56:54.455Z,0.00
2022-12-22T00:57:54.789Z,0.00
2022-12-22T00:58:56.961Z,0.00
2022-12-22T00:59:58.615Z,0.00
2022-12-22T01:00:57.557Z,0.00
2022-12-22T01:01:56.342Z,0.00
2022-12-22T01:02:56.365Z,0.00
2022-12-22T01:03:56.521Z,0.00
2022-12-22T01:04:56.821Z,0.00
2022-12-22T01:05:59.008Z,0.00
2022-12-22T01:06:57.408Z,0.00
2022-12-22T01:07:57.751Z,0.00
2022-12-22T01:08:58.040Z,0.00
2022-12-22T01:09:58.363Z,0.00
2022-12-22T01:11:00.548Z,0.00
2022-12-22T01:11:59.959Z,0.00
2022-12-22T01:12:59.209Z,0.00
2022-12-22T01:14:00.516Z,0.00
2022-12-22T01:14:59.759Z,0.00
2022-12-22T01:16:00.967Z,0.00
2022-12-22T01:17:02.200Z,0.00
2022-12-22T01:18:02.356Z,0.00
2022-12-22T01:19:02.710Z,0.00
2022-12-22T01:20:03.257Z,0.00
2022-12-22T01:21:03.401Z,0.00
2022-12-22T01:22:03.581Z,0.00
2022-12-22T01:23:04.037Z,0.00
2022-12-22T01:24:03.992Z,0.00
2022-12-22T01:25:04.659Z,0.00
2022-12-22T01:26:03.052Z,0.00
2022-12-22T01:27:05.250Z,0.00
2022-12-22T01:28:03.650Z,0.00
2022-12-22T01:29:05.832Z,0.00
2022-12-22T01:30:06.037Z,0.00
2022-12-22T01:31:06.222Z,0.00
2022-12-22T01:32:06.359Z,0.00
2022-12-22T01:33:07.017Z,0.00
2022-12-22T01:34:07.222Z,0.00
2022-12-22T01:35:07.409Z,0.00
2022-12-22T01:36:06.052Z,0.00
2022-12-22T01:37:06.396Z,0.00
2022-12-22T01:38:09.505Z,0.00
2022-12-22T01:39:08.754Z,0.00
2022-12-22T01:40:10.402Z,0.00
2022-12-22T01:41:09.141Z,0.00
2022-12-22T01:42:10.828Z,0.00
2022-12-22T01:43:10.045Z,0.00
2022-12-22T01:44:10.237Z,0.00
2022-12-22T01:45:10.423Z,0.00
2022-12-22T01:46:10.629Z,0.00
2022-12-22T01:47:09.256Z,0.00
2022-12-22T01:48:11.447Z,0.00
2022-12-22T01:49:09.834Z,0.00
2022-12-22T01:50:10.411Z,0.00
2022-12-22T01:51:12.346Z,0.00
2022-12-22T01:52:11.745Z,0.00
2022-12-22T01:53:14.856Z,0.00
2022-12-22T01:54:12.331Z,0.00
2022-12-22T01:55:11.583Z,0.00
2022-12-22T01:56:13.782Z,0.00
2022-12-22T01:57:12.176Z,0.00
2022-12-22T01:58:14.360Z,0.00
2022-12-22T01:59:12.793Z,0.00
2022-12-22T02:00:13.063Z,0.00
2022-12-22T02:01:15.272Z,0.00
2022-12-22T02:02:15.511Z,0.00
2022-12-22T02:03:13.915Z,0.00
2022-12-22T02:04:16.073Z,0.00
2022-12-22T02:05:16.264Z,0.00
2022-12-22T02:06:16.459Z,0.00
2022-12-22T02:07:16.647Z,0.00
2022-12-22T02:08:17.338Z,0.00
2022-12-22T02:09:17.543Z,0.00
2022-12-22T02:10:17.709Z,0.00
2022-12-22T02:11:17.874Z,0.00
2022-12-22T02:12:18.556Z,0.00
2022-12-22T02:13:18.826Z,0.00
2022-12-22T02:14:17.215Z,0.00
2022-12-22T02:15:19.423Z,0.00
2022-12-22T02:16:19.808Z,0.00
2022-12-22T02:17:18.104Z,0.00
2022-12-22T02:18:21.742Z,0.00
2022-12-22T02:19:18.689Z,0.00
2022-12-22T02:20:20.862Z,0.00
2022-12-22T02:21:21.042Z,0.00
2022-12-22T02:22:19.736Z,0.00
2022-12-22T02:23:21.789Z,0.00
2022-12-22T02:24:20.160Z,0.00
2022-12-22T02:25:20.478Z,0.00
2022-12-22T02:26:20.805Z,0.00
2022-12-22T02:27:21.110Z,0.00
2022-12-22T02:28:23.294Z,0.00
2022-12-22T02:29:21.815Z,0.00
2022-12-22T02:30:21.963Z,0.00
2022-12-22T02:31:23.122Z,0.00
2022-12-22T02:32:22.617Z,0.00
2022-12-22T02:33:24.956Z,0.00
2022-12-22T02:34:23.253Z,0.00
2022-12-22T02:35:23.557Z,0.00
2022-12-22T02:36:25.755Z,0.00
2022-12-22T02:37:24.138Z,0.00
2022-12-22T02:38:25.216Z,0.00
2022-12-22T02:39:25.641Z,0.00
2022-12-22T02:40:25.790Z,0.00
2022-12-22T02:41:25.290Z,0.00
2022-12-22T02:42:27.483Z,0.00
2022-12-22T02:43:25.883Z,0.00
2022-12-22T02:44:28.060Z,0.00
2022-12-22T02:45:26.449Z,0.00
2022-12-22T02:46:26.798Z,0.00
2022-12-22T02:47:28.971Z,0.00
2022-12-22T02:48:29.300Z,0.00
2022-12-22T02:49:29.355Z,0.00
2022-12-22T02:50:27.998Z,0.00
2022-12-22T02:51:28.314Z,0.00
2022-12-22T02:52:28.685Z,0.00
2022-12-22T02:53:28.867Z,0.00
2022-12-22T02:54:31.112Z,0.00
2022-12-22T02:55:29.504Z,0.00
2022-12-22T02:56:29.835Z,0.00
2022-12-22T02:57:30.153Z,0.00
2022-12-22T02:58:31.486Z,0.00
2022-12-22T02:59:32.649Z,0.00
2022-12-22T03:00:31.141Z,0.00
2022-12-22T03:01:33.392Z,0.00
2022-12-22T03:02:31.872Z,0.00
2022-12-22T03:03:32.029Z,0.00
2022-12-22T03:04:34.127Z,0.00
2022-12-22T03:05:32.531Z,0.00
2022-12-22T03:06:32.833Z,0.00
2022-12-22T03:07:35.023Z,0.00
2022-12-22T03:08:35.181Z,0.00
2022-12-22T03:09:35.375Z,0.00
2022-12-22T03:10:35.542Z,0.00
2022-12-22T03:11:36.223Z,0.00
2022-12-22T03:12:36.422Z,0.00
2022-12-22T03:13:36.611Z,0.00
2022-12-22T03:14:36.804Z,0.00
2022-12-22T03:15:37.484Z,0.00
2022-12-22T03:16:37.796Z,0.00
2022-12-22T03:17:37.874Z,0.00
2022-12-22T03:18:38.104Z,0.00
2022-12-22T03:19:38.273Z,0.00
2022-12-22T03:20:38.953Z,0.00
2022-12-22T03:21:39.129Z,0.00
2022-12-22T03:22:37.646Z,0.00
2022-12-22T03:23:37.958Z,0.00
2022-12-22T03:24:41.599Z,0.00
2022-12-22T03:25:40.343Z,0.00
2022-12-22T03:26:38.856Z,0.00
2022-12-22T03:27:41.045Z,0.00
2022-12-22T03:28:39.449Z,0.00
2022-12-22T03:29:39.772Z,0.00
2022-12-22T03:30:40.075Z,0.00
2022-12-22T03:31:42.316Z,0.00
2022-12-22T03:32:42.489Z,0.00
2022-12-22T03:33:40.869Z,0.00
2022-12-22T03:34:43.061Z,0.00
2022-12-22T03:35:42.271Z,0.00
2022-12-22T03:36:43.661Z,0.00
2022-12-22T03:37:43.886Z,0.00
2022-12-22T03:38:44.081Z,0.00
2022-12-22T03:39:44.266Z,0.00
2022-12-22T03:40:44.942Z,0.00
2022-12-22T03:41:43.632Z,0.00
2022-12-22T03:42:45.532Z,0.00
2022-12-22T03:43:45.729Z,0.00
2022-12-22T03:44:45.909Z,0.00
2022-12-22T03:45:46.154Z,0.00
2022-12-22T03:46:46.021Z,0.00
2022-12-22T03:47:46.620Z,0.00
2022-12-22T03:48:47.326Z,0.00
2022-12-22T03:49:47.468Z,0.00
2022-12-22T03:50:47.876Z,0.00
2022-12-22T03:51:47.871Z,0.00
2022-12-22T03:52:48.517Z,0.00
2022-12-22T03:53:46.906Z,0.00
2022-12-22T03:54:47.244Z,0.00
2022-12-22T03:55:47.552Z,0.00
2022-12-22T03:56:47.854Z,0.00
2022-12-22T03:57:49.079Z,0.00
2022-12-22T03:58:48.423Z,0.00
2022-12-22T03:59:48.748Z,0.00
2022-12-22T04:00:50.972Z,0.00
2022-12-22T04:01:49.628Z,0.00
2022-12-22T04:02:49.732Z,0.00
2022-12-22T04:03:49.914Z,0.00
2022-12-22T04:04:50.256Z,0.00
2022-12-22T04:05:52.433Z,0.00
2022-12-22T04:06:50.836Z,0.00
2022-12-22T04:07:51.144Z,0.00
2022-12-22T04:08:53.387Z,0.00
2022-12-22T04:09:51.777Z,0.00
2022-12-22T04:10:53.964Z,0.00
2022-12-22T04:11:53.365Z,0.00
2022-12-22T04:12:52.614Z,0.00
2022-12-22T04:13:52.935Z,0.00
2022-12-22T04:14:56.070Z,0.00
2022-12-22T04:15:56.276Z,0.00
2022-12-22T04:16:53.811Z,0.00
2022-12-22T04:17:55.141Z,0.00
2022-12-22T04:18:54.395Z,0.00
2022-12-22T04:19:56.553Z,0.00
2022-12-22T04:20:56.775Z,0.00
2022-12-22T04:21:56.311Z,0.00
2022-12-22T04:22:55.546Z,0.00
2022-12-22T04:23:55.850Z,0.00
2022-12-22T04:24:56.222Z,0.00
2022-12-22T04:25:56.515Z,0.00
2022-12-22T04:26:56.870Z,0.00
2022-12-22T04:27:57.185Z,0.00
2022-12-22T04:28:57.556Z,0.00
2022-12-22T04:29:59.704Z,0.00
2022-12-22T04:30:59.900Z,0.00
2022-12-22T04:31:59.332Z,0.00
2022-12-22T04:32:59.519Z,0.00
2022-12-22T04:33:58.898Z,0.00
2022-12-22T04:34:59.297Z,0.00
2022-12-22T04:36:01.397Z,0.00
2022-12-22T04:37:09.882Z,0.00
2022-12-22T04:38:01.138Z,0.00
2022-12-22T04:39:01.311Z,0.00
2022-12-22T04:40:00.614Z,0.00
2022-12-22T04:41:03.315Z,0.00
2022-12-22T04:42:01.210Z,0.00
2022-12-22T04:43:01.522Z,0.00
2022-12-22T04:44:01.848Z,0.00
2022-12-22T04:45:02.158Z,0.00
2022-12-22T04:46:04.566Z,0.00
2022-12-22T04:48:18.325Z,0.00
2022-12-22T04:49:20.492Z,0.00
2022-12-22T04:50:20.766Z,0.00
2022-12-22T04:51:20.881Z,0.00
2022-12-22T04:52:21.275Z,0.00
2022-12-22T04:53:21.297Z,0.00
2022-12-22T04:54:19.896Z,0.00
2022-12-22T04:55:20.202Z,0.00
2022-12-22T04:56:22.386Z,0.00
2022-12-22T04:57:22.575Z,0.00
2022-12-22T04:58:21.085Z,0.00
2022-12-22T04:59:21.397Z,0.00
2022-12-22T05:00:21.965Z,0.00
2022-12-22T05:01:22.076Z,0.00
2022-12-22T05:02:24.269Z,0.00
2022-12-22T05:03:22.602Z,0.00
2022-12-22T05:04:24.705Z,0.00
2022-12-22T05:05:24.874Z,0.00
2022-12-22T05:06:23.372Z,0.00
2022-12-22T05:07:25.573Z,0.00
2022-12-22T05:08:25.766Z,0.00
2022-12-22T05:09:25.051Z,0.00
2022-12-22T05:10:24.563Z,0.00
2022-12-22T05:11:26.772Z,0.00
2022-12-22T05:12:25.135Z,0.00
2022-12-22T05:13:27.342Z,0.00
2022-12-22T05:14:27.569Z,0.00
2022-12-22T05:15:27.697Z,0.00
2022-12-22T05:16:27.935Z,0.00
2022-12-22T05:17:26.656Z,0.00
2022-12-22T05:18:26.947Z,0.00
2022-12-22T05:19:30.898Z,0.00
2022-12-22T05:20:29.443Z,0.00
2022-12-22T05:21:27.834Z,0.00
2022-12-22T05:22:28.142Z,0.00
2022-12-22T05:23:28.460Z,0.00
2022-12-22T05:24:30.646Z,0.00
2022-12-22T05:25:35.148Z,0.00
2022-12-22T05:26:29.365Z,0.00
2022-12-22T05:27:29.697Z,0.00
2022-12-22T05:28:30.009Z,0.00
2022-12-22T05:29:32.180Z,0.00
2022-12-22T05:30:33.841Z,0.00
2022-12-22T05:31:32.557Z,0.00
2022-12-22T05:32:32.715Z,0.00
2022-12-22T05:33:33.412Z,0.00
2022-12-22T05:34:31.808Z,0.00
2022-12-22T05:35:33.969Z,0.00
2022-12-22T05:36:35.662Z,0.00
2022-12-22T05:37:32.646Z,0.00
2022-12-22T05:38:34.839Z,0.00
2022-12-22T05:39:35.032Z,0.00
2022-12-22T05:40:35.464Z,0.00
2022-12-22T05:41:37.121Z,0.00
2022-12-22T05:42:35.924Z,0.00
2022-12-22T05:43:36.025Z,0.00
2022-12-22T05:44:36.695Z,0.00
2022-12-22T05:45:35.083Z,0.00
2022-12-22T05:46:37.314Z,0.00
2022-12-22T05:47:38.920Z,0.00
2022-12-22T05:48:39.184Z,0.00
2022-12-22T05:49:36.245Z,0.00
2022-12-22T05:50:36.539Z,0.00
2022-12-22T05:51:38.737Z,0.00
2022-12-22T05:52:37.144Z,0.00
2022-12-22T05:53:39.308Z,0.00
2022-12-22T05:54:37.580Z,0.00
2022-12-22T05:55:37.912Z,0.00
2022-12-22T05:56:40.071Z,0.00
2022-12-22T05:57:38.458Z,0.00
2022-12-22T05:58:38.777Z,0.00
2022-12-22T05:59:38.993Z,0.00
2022-12-22T06:00:39.493Z,0.00
2022-12-22T06:01:42.696Z,0.00
2022-12-22T06:02:40.057Z,0.00
2022-12-22T06:03:42.270Z,0.00
2022-12-22T06:04:40.442Z,0.00
2022-12-22T06:05:40.747Z,0.00
2022-12-22T06:06:42.937Z,0.00
2022-12-22T06:07:43.133Z,0.00
2022-12-22T06:08:43.323Z,0.00
2022-12-22T06:09:41.944Z,0.00
2022-12-22T06:10:42.241Z,0.00
2022-12-22T06:11:44.547Z,0.00
2022-12-22T06:12:42.795Z,0.00
2022-12-22T06:13:43.092Z,0.00
2022-12-22T06:14:43.935Z,0.00
2022-12-22T06:15:43.784Z,0.00
2022-12-22T06:16:45.901Z,0.00
2022-12-22T06:17:45.325Z,0.00
2022-12-22T06:18:46.464Z,0.00
2022-12-22T06:19:44.833Z,0.00
2022-12-22T06:20:46.087Z,0.00
2022-12-22T06:21:46.310Z,0.00
2022-12-22T06:22:46.718Z,0.00
2022-12-22T06:23:49.423Z,0.00
2022-12-22T06:24:46.326Z,0.00
2022-12-22T06:25:46.646Z,0.00
2022-12-22T06:26:46.932Z,0.00
2022-12-22T06:27:49.137Z,0.00
2022-12-22T06:28:49.322Z,0.00
2022-12-22T06:29:50.987Z,0.00
2022-12-22T06:30:48.152Z,0.00
2022-12-22T06:31:50.359Z,0.00
2022-12-22T06:32:48.748Z,0.00
2022-12-22T06:33:49.048Z,0.00
2022-12-22T06:34:49.365Z,0.00
2022-12-22T06:35:53.943Z,0.00
2022-12-22T06:36:52.861Z,0.00
2022-12-22T06:37:50.249Z,0.00
2022-12-22T06:38:50.538Z,0.00
2022-12-22T06:39:50.826Z,0.00
2022-12-22T06:40:53.015Z,0.00
2022-12-22T06:41:53.212Z,0.00
2022-12-22T06:42:52.305Z,0.00
2022-12-22T06:43:53.887Z,0.00
2022-12-22T06:44:52.255Z,0.00
2022-12-22T06:45:52.554Z,0.00
2022-12-22T06:46:52.922Z,0.00
2022-12-22T06:47:53.105Z,0.00
2022-12-22T06:48:56.737Z,0.00
2022-12-22T06:49:55.486Z,0.00
2022-12-22T06:50:55.662Z,0.00
2022-12-22T06:51:55.865Z,0.00
2022-12-22T06:52:56.526Z,0.00
2022-12-22T06:53:56.724Z,0.00
2022-12-22T06:54:56.911Z,0.00
2022-12-22T06:55:57.113Z,0.00
2022-12-22T06:56:57.818Z,0.00
2022-12-22T06:57:56.178Z,0.00
2022-12-22T06:58:58.365Z,0.00
2022-12-22T06:59:57.749Z,0.00
2022-12-22T07:00:58.935Z,0.00
2022-12-22T07:01:59.226Z,4.00
2022-12-22T07:02:59.445Z,4.00
2022-12-22T07:03:59.481Z,4.00
2022-12-22T07:04:58.162Z,4.00
2022-12-22T07:06:00.346Z,4.00
2022-12-22T07:07:00.507Z,4.00
2022-12-22T07:08:05.755Z,4.00
2022-12-22T07:09:02.161Z,4.00
2022-12-22T07:10:01.366Z,8.00
2022-12-22T07:11:02.998Z,4.00
2022-12-22T07:12:01.721Z,8.00
2022-12-22T07:13:01.560Z,8.00
2022-12-22T07:14:02.758Z,12.00
2022-12-22T07:15:02.940Z,12.00
2022-12-22T07:16:03.252Z,12.00
2022-12-22T07:17:03.349Z,16.00
2022-12-22T07:18:04.024Z,20.00
2022-12-22T07:19:04.204Z,20.00
2022-12-22T07:20:04.377Z,24.00
2022-12-22T07:21:04.576Z,28.00
2022-12-22T07:22:05.253Z,28.00
2022-12-22T07:23:05.421Z,32.00
2022-12-22T07:24:03.921Z,32.00
2022-12-22T07:25:06.094Z,36.00
2022-12-22T07:26:06.277Z,40.00
2022-12-22T07:27:06.530Z,48.00
2022-12-22T07:28:06.659Z,44.00
2022-12-22T07:29:06.863Z,44.00
2022-12-22T07:30:07.504Z,52.00
2022-12-22T07:31:07.725Z,56.00
2022-12-22T07:32:06.200Z,56.00
2022-12-22T07:33:06.510Z,68.00
2022-12-22T07:34:06.815Z,72.00
2022-12-22T07:35:08.021Z,88.00
2022-12-22T07:36:07.382Z,84.00
2022-12-22T07:37:07.681Z,100.00
2022-12-22T07:38:09.914Z,120.00
2022-12-22T07:39:10.071Z,120.00
2022-12-22T07:40:10.276Z,124.00
2022-12-22T07:41:10.451Z,140.00
2022-12-22T07:42:11.145Z,156.00
2022-12-22T07:43:11.321Z,180.00
2022-12-22T07:44:12.977Z,200.00
2022-12-22T07:45:10.152Z,188.00
2022-12-22T07:46:10.506Z,212.00
2022-12-22T07:47:12.609Z,268.00
2022-12-22T07:48:10.993Z,300.00
2022-12-22T07:49:13.182Z,336.00
2022-12-22T07:50:11.598Z,360.00
2022-12-22T07:51:11.932Z,392.00
2022-12-22T07:52:16.579Z,392.00
2022-12-22T07:53:12.530Z,408.00
2022-12-22T07:54:14.712Z,432.00
2022-12-22T07:55:13.135Z,456.00
2022-12-22T07:56:15.337Z,468.00
2022-12-22T07:57:13.770Z,488.00
2022-12-22T07:58:14.076Z,548.00
2022-12-22T07:59:14.270Z,644.00
2022-12-22T08:00:16.453Z,644.00
2022-12-22T08:01:16.638Z,712.00
2022-12-22T08:02:15.269Z,728.00
2022-12-22T08:03:15.591Z,760.00
2022-12-22T08:04:15.862Z,736.00
2022-12-22T08:05:18.001Z,748.00
2022-12-22T08:06:18.192Z,744.00
2022-12-22T08:07:18.360Z,752.00
2022-12-22T08:08:16.911Z,812.00
2022-12-22T08:09:17.182Z,828.00
2022-12-22T08:10:19.322Z,864.00
2022-12-22T08:11:19.506Z,768.00
2022-12-22T08:12:18.031Z,752.00
2022-12-22T08:13:19.200Z,724.00
2022-12-22T08:14:19.583Z,840.00
2022-12-22T08:15:18.957Z,904.00
2022-12-22T08:16:21.176Z,896.00
2022-12-22T08:17:19.750Z,1200.00
2022-12-22T08:18:21.710Z,1212.00
2022-12-22T08:19:20.115Z,1500.00
2022-12-22T08:20:22.310Z,1444.00
2022-12-22T08:21:20.716Z,1792.00
2022-12-22T08:22:22.986Z,1772.00
2022-12-22T08:23:21.396Z,1804.00
2022-12-22T08:24:21.747Z,1916.00
2022-12-22T08:25:22.086Z,1724.00
2022-12-22T08:26:22.438Z,1728.00
2022-12-22T08:27:26.364Z,1616.00
2022-12-22T08:28:23.297Z,1448.00
2022-12-22T08:29:25.182Z,1440.00
2022-12-22T08:30:25.384Z,1408.00
2022-12-22T08:31:23.993Z,1440.00
2022-12-22T08:32:26.086Z,1864.00
2022-12-22T08:33:24.492Z,1808.00
2022-12-22T08:34:24.837Z,1412.00
2022-12-22T08:35:25.164Z,1460.00
2022-12-22T08:36:25.505Z,1908.00
2022-12-22T08:37:27.685Z,1832.00
2022-12-22T08:38:26.117Z,1388.00
2022-12-22T08:39:26.329Z,1920.00
2022-12-22T08:40:28.583Z,1872.00
2022-12-22T08:41:26.985Z,1916.00
2022-12-22T08:42:27.323Z,2128.00
2022-12-22T08:43:29.516Z,1672.00
2022-12-22T08:44:27.932Z,1712.00
2022-12-22T08:45:28.279Z,1984.00
2022-12-22T08:46:30.516Z,1812.00
2022-12-22T08:47:30.698Z,1944.00
2022-12-22T08:48:30.842Z,1580.00
2022-12-22T08:49:31.045Z,1504.00
2022-12-22T08:50:31.688Z,1752.00
2022-12-22T08:51:29.969Z,1612.00
2022-12-22T08:52:33.168Z,1772.00
2022-12-22T08:54:14.323Z,2008.00
2022-12-22T08:54:31.896Z,1776.00
2022-12-22T08:55:33.076Z,2608.00
2022-12-22T08:56:33.270Z,2496.00
2022-12-22T08:57:33.470Z,3028.00
2022-12-22T08:58:33.637Z,3080.00
2022-12-22T08:59:34.334Z,2968.00
2022-12-22T09:00:34.574Z,2988.00
2022-12-22T09:01:34.864Z,2960.00
2022-12-22T09:02:33.407Z,3156.00
2022-12-22T09:03:35.444Z,2780.00
2022-12-22T09:04:33.860Z,2652.00
2022-12-22T09:05:34.070Z,2904.00
2022-12-22T09:06:40.481Z,3196.00
2022-12-22T09:07:35.752Z,3260.00
2022-12-22T09:08:36.915Z,4156.00
2022-12-22T09:09:37.097Z,4880.00
2022-12-22T09:10:35.620Z,4304.00
2022-12-22T09:11:35.951Z,3212.00
2022-12-22T09:12:37.310Z,3472.00
2022-12-22T09:13:38.492Z,3480.00
2022-12-22T09:14:38.718Z,3412.00
2022-12-22T09:15:38.907Z,3904.00
2022-12-22T09:16:39.173Z,4044.00
2022-12-22T09:17:39.315Z,4760.00
2022-12-22T09:18:39.778Z,4964.00
2022-12-22T09:19:40.157Z,4964.00
2022-12-22T09:20:40.326Z,5248.00
2022-12-22T09:21:40.506Z,5152.00
2022-12-22T09:22:40.655Z,5336.00
2022-12-22T09:23:41.338Z,4948.00
2022-12-22T09:24:41.641Z,5772.00
2022-12-22T09:25:41.740Z,5576.00
2022-12-22T09:26:41.897Z,4948.00
2022-12-22T09:27:42.605Z,4500.00
2022-12-22T09:28:49.683Z,3656.00
2022-12-22T09:29:44.460Z,2780.00
2022-12-22T09:30:41.498Z,4036.00
2022-12-22T09:31:43.813Z,3704.00
2022-12-22T09:32:43.884Z,3644.00
2022-12-22T09:33:44.090Z,5228.00
2022-12-22T09:34:44.285Z,7316.00
2022-12-22T09:35:45.123Z,7436.00
2022-12-22T09:36:43.407Z,7528.00
2022-12-22T09:37:43.733Z,6880.00
2022-12-22T09:38:44.099Z,6352.00
2022-12-22T09:39:46.276Z,7460.00
2022-12-22T09:40:44.583Z,7252.00
2022-12-22T09:41:44.800Z,8144.00
2022-12-22T09:42:45.132Z,9636.00
2022-12-22T09:43:45.496Z,8704.00
2022-12-22T09:44:45.821Z,9228.00
2022-12-22T09:45:49.046Z,9872.00
2022-12-22T09:46:46.471Z,9404.00
2022-12-22T09:47:48.664Z,8976.00
2022-12-22T09:48:47.125Z,10220.00
2022-12-22T09:49:47.314Z,10444.00
2022-12-22T09:50:49.545Z,9860.00
2022-12-22T09:51:51.151Z,10016.00
2022-12-22T09:52:48.085Z,10644.00
2022-12-22T09:53:50.272Z,9384.00
2022-12-22T09:54:48.695Z,9136.00
2022-12-22T09:55:49.048Z,7964.00
2022-12-22T09:56:51.230Z,6828.00
2022-12-22T09:57:49.638Z,6612.00
2022-12-22T09:58:51.824Z,7616.00
2022-12-22T09:59:50.228Z,7212.00
2022-12-22T10:00:50.609Z,7736.00
2022-12-22T10:01:51.872Z,7180.00
2022-12-22T10:02:54.028Z,7516.00
2022-12-22T10:03:56.518Z,7060.00
2022-12-22T10:04:52.786Z,6796.00
2022-12-22T10:05:52.062Z,6128.00
2022-12-22T10:06:52.409Z,7496.00
2022-12-22T10:07:54.595Z,7688.00
2022-12-22T10:08:53.021Z,6772.00
2022-12-22T10:09:53.341Z,6028.00
2022-12-22T10:10:53.730Z,5756.00
2022-12-22T10:11:54.033Z,6716.00
2022-12-22T10:12:56.217Z,7420.00
2022-12-22T10:13:55.518Z,8620.00
2022-12-22T10:14:54.950Z,6432.00
2022-12-22T10:15:55.281Z,5268.00
2022-12-22T10:16:55.633Z,7000.00
2022-12-22T10:17:55.958Z,5348.00
2022-12-22T10:18:58.128Z,5012.00
2022-12-22T10:19:56.557Z,5684.00
2022-12-22T10:20:56.805Z,5840.00
2022-12-22T10:21:57.045Z,6396.00
2022-12-22T10:22:59.280Z,5432.00
2022-12-22T10:23:58.522Z,5196.00
2022-12-22T10:24:57.783Z,5880.00
2022-12-22T10:26:27.378Z,5460.00
2022-12-22T10:26:59.376Z,5080.00
2022-12-22T10:27:58.644Z,5716.00
2022-12-22T10:29:00.834Z,5544.00
2022-12-22T10:30:01.406Z,5740.00
2022-12-22T10:31:01.207Z,5384.00
2022-12-22T10:32:01.458Z,5184.00
2022-12-22T10:33:02.082Z,5476.00
2022-12-22T10:34:02.256Z,5148.00
2022-12-22T10:35:03.214Z,5004.00
2022-12-22T10:36:02.667Z,4936.00
2022-12-22T10:37:02.842Z,4524.00
2022-12-22T10:38:03.543Z,4596.00
2022-12-22T10:39:04.733Z,4536.00
2022-12-22T10:40:02.456Z,4692.00
2022-12-22T10:41:02.876Z,5532.00
2022-12-22T10:42:02.771Z,6040.00
2022-12-22T10:43:03.103Z,7320.00
2022-12-22T10:44:03.437Z,8340.00
2022-12-22T10:45:05.626Z,10260.00
2022-12-22T10:46:05.059Z,8952.00
2022-12-22T10:47:04.295Z,9576.00
2022-12-22T10:48:06.447Z,9132.00
2022-12-22T10:49:06.605Z,8808.00
2022-12-22T10:50:06.795Z,8332.00
2022-12-22T10:51:05.470Z,8672.00
2022-12-22T10:52:05.794Z,7496.00
2022-12-22T10:53:07.990Z,8140.00
2022-12-22T10:54:08.181Z,10412.00
2022-12-22T10:55:08.360Z,10596.00
2022-12-22T10:56:08.570Z,9792.00
2022-12-22T10:57:10.703Z,8836.00
2022-12-22T10:58:09.478Z,9940.00
2022-12-22T10:59:09.630Z,12660.00
2022-12-22T11:00:09.818Z,11228.00
2022-12-22T11:01:10.044Z,11208.00
2022-12-22T11:02:11.028Z,10176.00
2022-12-22T11:03:09.289Z,10328.00
2022-12-22T11:04:11.404Z,13584.00
2022-12-22T11:05:11.564Z,14820.00
2022-12-22T11:06:09.953Z,15808.00
2022-12-22T11:07:10.182Z,14636.00
2022-12-22T11:08:12.400Z,15040.00
2022-12-22T11:09:32.399Z,16160.00
2022-12-22T11:10:13.761Z,15596.00
2022-12-22T11:11:11.317Z,13748.00
2022-12-22T11:12:11.547Z,16128.00
2022-12-22T11:13:11.770Z,15648.00
2022-12-22T11:14:15.402Z,16384.00
2022-12-22T11:15:18.537Z,13856.00
2022-12-22T11:16:13.618Z,12712.00
2022-12-22T11:17:12.953Z,11020.00
2022-12-22T11:18:13.190Z,9124.00
2022-12-22T11:19:14.493Z,8872.00
2022-12-22T11:20:15.729Z,6580.00
2022-12-22T11:21:22.051Z,7300.00
2022-12-22T11:22:15.393Z,7980.00
2022-12-22T11:23:16.515Z,6732.00
2022-12-22T11:24:16.684Z,7104.00
2022-12-22T11:25:17.079Z,7028.00
2022-12-22T11:26:17.021Z,6848.00
2022-12-22T11:27:17.705Z,7444.00
2022-12-22T11:28:16.134Z,7576.00
2022-12-22T11:29:18.273Z,8564.00
2022-12-22T11:30:16.712Z,9756.00
2022-12-22T11:31:18.963Z,8352.00
2022-12-22T11:32:17.285Z,9844.00
2022-12-22T11:33:19.475Z,8400.00
2022-12-22T11:34:21.261Z,8232.00
2022-12-22T11:35:18.198Z,6968.00
2022-12-22T11:36:20.450Z,7352.00
2022-12-22T11:37:18.867Z,6348.00
2022-12-22T11:38:19.209Z,5660.00
2022-12-22T11:39:19.533Z,5300.00
2022-12-22T11:40:21.733Z,5508.00
2022-12-22T11:41:21.917Z,5144.00
2022-12-22T11:42:20.465Z,5460.00
2022-12-22T11:43:20.683Z,6644.00
2022-12-22T11:44:22.862Z,7572.00
2022-12-22T11:45:21.288Z,7028.00
2022-12-22T11:46:21.575Z,6620.00
2022-12-22T11:47:21.800Z,6280.00
2022-12-22T11:48:23.106Z,5068.00
2022-12-22T11:49:24.331Z,4508.00
2022-12-22T11:51:01.543Z,4492.00
2022-12-22T11:51:28.338Z,5328.00
2022-12-22T11:52:26.172Z,6964.00
2022-12-22T11:53:23.471Z,7152.00
2022-12-22T11:54:25.668Z,6096.00
2022-12-22T11:55:24.060Z,5988.00
2022-12-22T11:56:24.402Z,7224.00
2022-12-22T11:57:26.576Z,7280.00
2022-12-22T11:58:27.039Z,8252.00
2022-12-22T11:59:26.142Z,9084.00
2022-12-22T12:00:49.032Z,10988.00
2022-12-22T12:01:26.912Z,12544.00
2022-12-22T12:02:26.360Z,13640.00
2022-12-22T12:03:28.513Z,15188.00
2022-12-22T12:04:28.609Z,18656.00
2022-12-22T12:05:27.044Z,12168.00
2022-12-22T12:06:27.254Z,14368.00
2022-12-22T12:07:27.521Z,13912.00
2022-12-22T12:08:27.713Z,14248.00
2022-12-22T12:09:29.901Z,14388.00
2022-12-22T12:10:28.218Z,11116.00
2022-12-22T12:11:28.435Z,10656.00
2022-12-22T12:12:28.649Z,9928.00
2022-12-22T12:13:36.538Z,11932.00
2022-12-22T12:14:32.194Z,9380.00
2022-12-22T12:15:31.408Z,8496.00
2022-12-22T12:16:29.971Z,9448.00
2022-12-22T12:17:30.264Z,7692.00
2022-12-22T12:18:30.597Z,7248.00
2022-12-22T12:19:32.790Z,6208.00
2022-12-22T12:20:34.456Z,6052.00
2022-12-22T12:21:31.474Z,6016.00
2022-12-22T12:22:31.819Z,6432.00
2022-12-22T12:23:32.155Z,5452.00
2022-12-22T12:24:34.353Z,5924.00
2022-12-22T12:25:34.580Z,6320.00
2022-12-22T12:26:34.850Z,5456.00
2022-12-22T12:27:34.877Z,6544.00
2022-12-22T12:28:35.055Z,6480.00
2022-12-22T12:29:35.742Z,5652.00
2022-12-22T12:30:38.786Z,5616.00
2022-12-22T12:31:34.496Z,6480.00
2022-12-22T12:32:34.670Z,6920.00
2022-12-22T12:33:35.004Z,6780.00
2022-12-22T12:34:37.183Z,7536.00
2022-12-22T12:35:37.362Z,6528.00
2022-12-22T12:36:37.563Z,7988.00
2022-12-22T12:37:37.754Z,10536.00
2022-12-22T12:39:37.885Z,7772.00
2022-12-22T12:40:39.084Z,5624.00
2022-12-22T12:41:39.264Z,6284.00
2022-12-22T12:42:40.902Z,6452.00
2022-12-22T12:43:39.629Z,6652.00
2022-12-22T12:44:40.348Z,6084.00
2022-12-22T12:45:40.539Z,5784.00
2022-12-22T12:46:39.127Z,5864.00
2022-12-22T12:47:42.725Z,6356.00
2022-12-22T12:48:42.943Z,4504.00
2022-12-22T12:49:41.674Z,4796.00
2022-12-22T12:50:41.894Z,5052.00
2022-12-22T12:51:42.051Z,5156.00
2022-12-22T12:52:42.257Z,4184.00